sensor_id;sensor_type;location;lat;lon;timestamp;pressure;altitude;pressure_sealevel;temperature;humidity
56668;BME280;42542;48.360;10.958;2022-08-03T00:00:21;96263.00;;;17.86;88.06
56668;BME280;42542;48.360;10.958;2022-08-03T00:03:24;96258.81;;;17.83;87.92
56668;BME280;42542;48.360;10.958;2022-08-03T00:06:26;96259.00;;;17.82;88.01
56668;BME280;42542;48.360;10.958;2022-08-03T00:09:28;96258.59;;;17.78;88.20
56668;BME280;42542;48.360;10.958;2022-08-03T00:12:36;96256.94;;;17.71;88.24
56668;BME280;42542;48.360;10.958;2022-08-03T00:15:39;96262.72;;;17.68;88.25
56668;BME280;42542;48.360;10.958;2022-08-03T00:18:41;96259.63;;;17.64;88.43
56668;BME280;42542;48.360;10.958;2022-08-03T00:21:43;96257.31;;;17.61;88.48
56668;BME280;42542;48.360;10.958;2022-08-03T00:24:44;96261.22;;;17.58;88.42
56668;BME280;42542;48.360;10.958;2022-08-03T00:27:46;96257.28;;;17.54;88.64
56668;BME280;42542;48.360;10.958;2022-08-03T00:30:48;96260.59;;;17.50;88.86
56668;BME280;42542;48.360;10.958;2022-08-03T00:33:50;96253.91;;;17.46;89.17
56668;BME280;42542;48.360;10.958;2022-08-03T00:37:00;96251.84;;;17.41;89.20
56668;BME280;42542;48.360;10.958;2022-08-03T00:40:02;96255.75;;;17.39;89.20
56668;BME280;42542;48.360;10.958;2022-08-03T00:43:06;96248.09;;;17.36;89.39
56668;BME280;42542;48.360;10.958;2022-08-03T00:46:09;96250.34;;;17.32;89.58
56668;BME280;42542;48.360;10.958;2022-08-03T00:49:10;96243.88;;;17.27;89.59
56668;BME280;42542;48.360;10.958;2022-08-03T00:52:14;96242.63;;;17.23;89.86
56668;BME280;42542;48.360;10.958;2022-08-03T00:55:16;96243.03;;;17.20;90.08
56668;BME280;42542;48.360;10.958;2022-08-03T00:58:18;96245.28;;;17.16;90.31
56668;BME280;42542;48.360;10.958;2022-08-03T01:01:20;96246.31;;;17.15;90.18
56668;BME280;42542;48.360;10.958;2022-08-03T01:04:22;96250.09;;;17.14;90.59
56668;BME280;42542;48.360;10.958;2022-08-03T01:14:24;96244.84;;;17.06;91.42
56668;BME280;42542;48.360;10.958;2022-08-03T01:17:33;96241.50;;;17.04;91.14
56668;BME280;42542;48.360;10.958;2022-08-03T01:20:39;96238.16;;;17.02;91.37
56668;BME280;42542;48.360;10.958;2022-08-03T01:23:55;96248.13;;;17.01;91.15
56668;BME280;42542;48.360;10.958;2022-08-03T01:27:07;96240.84;;;16.95;91.18
56668;BME280;42542;48.360;10.958;2022-08-03T01:30:10;96235.63;;;16.94;91.00
56668;BME280;42542;48.360;10.958;2022-08-03T01:33:25;96238.13;;;16.89;91.12
56668;BME280;42542;48.360;10.958;2022-08-03T01:36:35;96237.91;;;16.84;91.05
56668;BME280;42542;48.360;10.958;2022-08-03T01:39:39;96233.91;;;16.79;90.90
56668;BME280;42542;48.360;10.958;2022-08-03T01:42:43;96234.13;;;16.78;91.34
56668;BME280;42542;48.360;10.958;2022-08-03T01:45:45;96229.13;;;16.75;91.24
56668;BME280;42542;48.360;10.958;2022-08-03T01:48:48;96237.84;;;16.70;91.18
56668;BME280;42542;48.360;10.958;2022-08-03T01:51:51;96236.34;;;16.68;91.59
56668;BME280;42542;48.360;10.958;2022-08-03T01:55:07;96229.69;;;16.64;91.65
56668;BME280;42542;48.360;10.958;2022-08-03T01:58:12;96233.97;;;16.58;91.80
56668;BME280;42542;48.360;10.958;2022-08-03T02:01:17;96224.44;;;16.56;91.88
56668;BME280;42542;48.360;10.958;2022-08-03T02:04:21;96232.53;;;16.56;92.39
56668;BME280;42542;48.360;10.958;2022-08-03T02:07:25;96230.59;;;16.50;92.42
56668;BME280;42542;48.360;10.958;2022-08-03T02:10:29;96234.34;;;16.49;92.27
56668;BME280;42542;48.360;10.958;2022-08-03T02:13:36;96236.41;;;16.47;92.48
56668;BME280;42542;48.360;10.958;2022-08-03T02:16:38;96233.25;;;16.43;92.67
56668;BME280;42542;48.360;10.958;2022-08-03T02:19:42;96233.84;;;16.38;92.69
56668;BME280;42542;48.360;10.958;2022-08-03T02:22:45;96232.38;;;16.36;92.83
56668;BME280;42542;48.360;10.958;2022-08-03T02:25:52;96231.94;;;16.32;92.57
56668;BME280;42542;48.360;10.958;2022-08-03T02:28:55;96234.84;;;16.31;92.81
56668;BME280;42542;48.360;10.958;2022-08-03T02:32:02;96230.88;;;16.27;93.15
56668;BME280;42542;48.360;10.958;2022-08-03T02:35:10;96231.25;;;16.24;93.19
56668;BME280;42542;48.360;10.958;2022-08-03T02:38:14;96233.53;;;16.20;93.70
56668;BME280;42542;48.360;10.958;2022-08-03T02:41:28;96233.06;;;16.17;93.76
56668;BME280;42542;48.360;10.958;2022-08-03T02:44:32;96234.94;;;16.16;93.95
56668;BME280;42542;48.360;10.958;2022-08-03T02:47:36;96234.50;;;16.13;93.96
56668;BME280;42542;48.360;10.958;2022-08-03T02:50:57;96227.81;;;16.09;94.07
56668;BME280;42542;48.360;10.958;2022-08-03T02:54:02;96234.88;;;16.10;94.14
56668;BME280;42542;48.360;10.958;2022-08-03T02:57:06;96228.00;;;16.07;94.02
56668;BME280;42542;48.360;10.958;2022-08-03T03:00:10;96234.47;;;16.06;94.12
56668;BME280;42542;48.360;10.958;2022-08-03T03:03:12;96221.56;;;16.01;93.98
56668;BME280;42542;48.360;10.958;2022-08-03T03:06:17;96221.13;;;15.98;93.82
56668;BME280;42542;48.360;10.958;2022-08-03T03:09:20;96215.09;;;15.96;93.80
56668;BME280;42542;48.360;10.958;2022-08-03T03:12:22;96219.81;;;15.94;93.79
56668;BME280;42542;48.360;10.958;2022-08-03T03:15:26;96222.94;;;15.91;93.77
56668;BME280;42542;48.360;10.958;2022-08-03T03:18:30;96224.97;;;15.89;94.04
56668;BME280;42542;48.360;10.958;2022-08-03T03:21:34;96224.34;;;15.87;94.02
56668;BME280;42542;48.360;10.958;2022-08-03T03:24:37;96226.00;;;15.88;94.13
56668;BME280;42542;48.360;10.958;2022-08-03T03:27:40;96215.59;;;15.85;94.55
56668;BME280;42542;48.360;10.958;2022-08-03T03:30:50;96220.19;;;15.84;94.30
56668;BME280;42542;48.360;10.958;2022-08-03T03:33:56;96226.59;;;15.83;94.33
56668;BME280;42542;48.360;10.958;2022-08-03T03:36:58;96213.91;;;15.77;93.79
56668;BME280;42542;48.360;10.958;2022-08-03T03:39:59;96219.47;;;15.76;94.22
56668;BME280;42542;48.360;10.958;2022-08-03T03:43:02;96218.00;;;15.73;94.34
56668;BME280;42542;48.360;10.958;2022-08-03T03:46:03;96210.50;;;15.69;94.58
56668;BME280;42542;48.360;10.958;2022-08-03T03:49:05;96216.72;;;15.69;94.33
56668;BME280;42542;48.360;10.958;2022-08-03T03:52:10;96220.25;;;15.70;94.95
56668;BME280;42542;48.360;10.958;2022-08-03T03:55:16;96218.59;;;15.69;94.64
56668;BME280;42542;48.360;10.958;2022-08-03T03:58:19;96215.25;;;15.67;94.75
56668;BME280;42542;48.360;10.958;2022-08-03T04:01:25;96215.00;;;15.61;94.77
56668;BME280;42542;48.360;10.958;2022-08-03T04:04:26;96215.38;;;15.58;95.13
56668;BME280;42542;48.360;10.958;2022-08-03T04:08:02;96220.56;;;15.60;95.62
56668;BME280;42542;48.360;10.958;2022-08-03T04:11:33;96225.13;;;15.59;95.56
56668;BME280;42542;48.360;10.958;2022-08-03T04:14:38;96223.63;;;15.57;95.25
56668;BME280;42542;48.360;10.958;2022-08-03T04:17:41;96225.31;;;15.58;95.72
56668;BME280;42542;48.360;10.958;2022-08-03T04:20:46;96224.88;;;15.54;95.62
56668;BME280;42542;48.360;10.958;2022-08-03T04:23:52;96232.56;;;15.57;95.58
56668;BME280;42542;48.360;10.958;2022-08-03T04:26:56;96223.44;;;15.58;95.59
56668;BME280;42542;48.360;10.958;2022-08-03T04:30:03;96230.69;;;15.58;95.45
56668;BME280;42542;48.360;10.958;2022-08-03T04:33:05;96224.47;;;15.57;95.75
56668;BME280;42542;48.360;10.958;2022-08-03T04:36:08;96240.28;;;15.60;95.76
56668;BME280;42542;48.360;10.958;2022-08-03T04:39:17;96234.88;;;15.60;96.13
56668;BME280;42542;48.360;10.958;2022-08-03T04:42:22;96239.06;;;15.63;95.93
56668;BME280;42542;48.360;10.958;2022-08-03T04:45:26;96251.94;;;15.68;96.07
56668;BME280;42542;48.360;10.958;2022-08-03T04:48:28;96249.91;;;15.70;95.99
56668;BME280;42542;48.360;10.958;2022-08-03T04:51:30;96258.41;;;15.73;95.89
56668;BME280;42542;48.360;10.958;2022-08-03T04:54:38;96255.34;;;15.76;96.16
56668;BME280;42542;48.360;10.958;2022-08-03T04:57:40;96262.19;;;15.79;95.89
56668;BME280;42542;48.360;10.958;2022-08-03T05:00:42;96260.41;;;15.86;96.15
56668;BME280;42542;48.360;10.958;2022-08-03T05:03:46;96263.56;;;15.89;96.38
56668;BME280;42542;48.360;10.958;2022-08-03T05:06:47;96256.72;;;15.93;96.25
56668;BME280;42542;48.360;10.958;2022-08-03T05:09:56;96259.88;;;15.97;96.28
56668;BME280;42542;48.360;10.958;2022-08-03T05:13:03;96259.75;;;16.05;96.36
56668;BME280;42542;48.360;10.958;2022-08-03T05:16:05;96260.66;;;16.12;96.79
56668;BME280;42542;48.360;10.958;2022-08-03T05:19:07;96269.81;;;16.18;96.84
56668;BME280;42542;48.360;10.958;2022-08-03T05:22:08;96264.94;;;16.28;96.54
56668;BME280;42542;48.360;10.958;2022-08-03T05:25:10;96250.88;;;16.39;96.14
56668;BME280;42542;48.360;10.958;2022-08-03T05:28:21;96260.91;;;16.52;96.46
56668;BME280;42542;48.360;10.958;2022-08-03T05:31:23;96257.72;;;16.63;96.43
56668;BME280;42542;48.360;10.958;2022-08-03T05:34:25;96260.28;;;16.77;95.70
56668;BME280;42542;48.360;10.958;2022-08-03T05:37:26;96266.63;;;16.98;94.99
56668;BME280;42542;48.360;10.958;2022-08-03T05:40:28;96265.47;;;17.13;94.66
56668;BME280;42542;48.360;10.958;2022-08-03T05:43:29;96269.03;;;17.27;93.90
56668;BME280;42542;48.360;10.958;2022-08-03T05:46:32;96269.91;;;17.41;93.23
56668;BME280;42542;48.360;10.958;2022-08-03T05:49:33;96277.44;;;17.58;92.78
56668;BME280;42542;48.360;10.958;2022-08-03T05:52:35;96268.34;;;17.73;92.37
56668;BME280;42542;48.360;10.958;2022-08-03T05:55:37;96273.38;;;17.89;91.91
56668;BME280;42542;48.360;10.958;2022-08-03T05:58:38;96261.34;;;18.05;91.39
56668;BME280;42542;48.360;10.958;2022-08-03T06:01:40;96260.28;;;18.19;91.05
56668;BME280;42542;48.360;10.958;2022-08-03T06:04:42;96259.03;;;18.34;90.94
56668;BME280;42542;48.360;10.958;2022-08-03T06:07:43;96254.66;;;18.47;90.13
56668;BME280;42542;48.360;10.958;2022-08-03T06:10:45;96255.50;;;18.60;89.92
56668;BME280;42542;48.360;10.958;2022-08-03T06:13:46;96262.34;;;18.76;89.66
56668;BME280;42542;48.360;10.958;2022-08-03T06:16:48;96264.41;;;18.87;88.56
56668;BME280;42542;48.360;10.958;2022-08-03T06:19:53;96256.25;;;19.00;87.32
56668;BME280;42542;48.360;10.958;2022-08-03T06:22:54;96265.16;;;19.14;87.16
56668;BME280;42542;48.360;10.958;2022-08-03T06:26:01;96260.72;;;19.26;86.98
56668;BME280;42542;48.360;10.958;2022-08-03T06:29:03;96262.53;;;19.39;85.87
56668;BME280;42542;48.360;10.958;2022-08-03T06:32:08;96267.31;;;19.50;85.55
56668;BME280;42542;48.360;10.958;2022-08-03T06:35:10;96259.53;;;19.60;85.43
56668;BME280;42542;48.360;10.958;2022-08-03T06:38:11;96269.72;;;19.71;85.25
56668;BME280;42542;48.360;10.958;2022-08-03T06:41:13;96269.25;;;19.81;84.70
56668;BME280;42542;48.360;10.958;2022-08-03T06:44:15;96273.13;;;19.92;84.09
56668;BME280;42542;48.360;10.958;2022-08-03T06:47:16;96264.06;;;20.04;83.85
56668;BME280;42542;48.360;10.958;2022-08-03T06:50:18;96266.50;;;20.12;82.60
56668;BME280;42542;48.360;10.958;2022-08-03T06:53:26;96264.94;;;20.30;82.55
56668;BME280;42542;48.360;10.958;2022-08-03T06:56:27;96270.06;;;20.44;80.90
56668;BME280;42542;48.360;10.958;2022-08-03T06:59:29;96273.47;;;20.58;81.19
56668;BME280;42542;48.360;10.958;2022-08-03T07:02:50;96264.22;;;20.65;80.19
56668;BME280;42542;48.360;10.958;2022-08-03T07:05:58;96254.34;;;20.71;80.27
56668;BME280;42542;48.360;10.958;2022-08-03T07:09:00;96269.66;;;20.84;79.77
56668;BME280;42542;48.360;10.958;2022-08-03T07:12:02;96268.75;;;20.90;79.43
56668;BME280;42542;48.360;10.958;2022-08-03T07:15:05;96272.00;;;20.98;78.81
56668;BME280;42542;48.360;10.958;2022-08-03T07:18:06;96266.13;;;21.01;78.04
56668;BME280;42542;48.360;10.958;2022-08-03T07:21:08;96264.19;;;21.09;77.97
56668;BME280;42542;48.360;10.958;2022-08-03T07:24:11;96267.81;;;21.21;77.25
56668;BME280;42542;48.360;10.958;2022-08-03T07:27:14;96271.44;;;21.33;76.76
56668;BME280;42542;48.360;10.958;2022-08-03T07:30:16;96258.53;;;21.47;76.38
56668;BME280;42542;48.360;10.958;2022-08-03T07:33:18;96260.25;;;21.59;75.30
56668;BME280;42542;48.360;10.958;2022-08-03T07:36:20;96261.09;;;21.71;75.43
56668;BME280;42542;48.360;10.958;2022-08-03T07:39:21;96264.56;;;21.78;75.48
56668;BME280;42542;48.360;10.958;2022-08-03T07:42:23;96258.94;;;21.92;74.24
56668;BME280;42542;48.360;10.958;2022-08-03T07:45:24;96257.34;;;22.02;73.95
56668;BME280;42542;48.360;10.958;2022-08-03T07:48:27;96263.88;;;22.13;73.15
56668;BME280;42542;48.360;10.958;2022-08-03T07:51:28;96259.41;;;22.18;73.07
56668;BME280;42542;48.360;10.958;2022-08-03T07:54:30;96245.44;;;22.27;72.27
56668;BME280;42542;48.360;10.958;2022-08-03T07:57:32;96245.00;;;22.53;69.06
56668;BME280;42542;48.360;10.958;2022-08-03T08:00:34;96247.38;;;22.73;69.17
56668;BME280;42542;48.360;10.958;2022-08-03T08:03:36;96234.13;;;22.88;67.51
56668;BME280;42542;48.360;10.958;2022-08-03T08:06:53;96234.69;;;23.02;66.96
56668;BME280;42542;48.360;10.958;2022-08-03T08:09:55;96242.16;;;23.18;66.85
56668;BME280;42542;48.360;10.958;2022-08-03T08:12:57;96239.63;;;23.28;66.18
56668;BME280;42542;48.360;10.958;2022-08-03T08:15:59;96236.13;;;23.44;64.76
56668;BME280;42542;48.360;10.958;2022-08-03T08:19:01;96244.66;;;23.59;65.08
56668;BME280;42542;48.360;10.958;2022-08-03T08:22:03;96235.59;;;23.70;64.75
56668;BME280;42542;48.360;10.958;2022-08-03T08:25:06;96231.50;;;23.85;62.50
56668;BME280;42542;48.360;10.958;2022-08-03T08:28:07;96242.69;;;24.00;60.91
56668;BME280;42542;48.360;10.958;2022-08-03T08:31:29;96233.13;;;24.14;59.46
56668;BME280;42542;48.360;10.958;2022-08-03T08:34:30;96237.63;;;24.37;58.07
56668;BME280;42542;48.360;10.958;2022-08-03T08:37:32;96229.94;;;24.50;57.10
56668;BME280;42542;48.360;10.958;2022-08-03T08:40:34;96222.38;;;24.74;54.98
56668;BME280;42542;48.360;10.958;2022-08-03T08:43:36;96229.00;;;24.95;52.75
56668;BME280;42542;48.360;10.958;2022-08-03T08:46:38;96237.38;;;25.05;52.70
56668;BME280;42542;48.360;10.958;2022-08-03T08:49:40;96235.53;;;25.11;51.06
56668;BME280;42542;48.360;10.958;2022-08-03T08:53:01;96234.06;;;25.25;51.78
56668;BME280;42542;48.360;10.958;2022-08-03T08:56:04;96232.38;;;25.41;50.31
56668;BME280;42542;48.360;10.958;2022-08-03T08:59:08;96224.06;;;25.57;49.26
56668;BME280;42542;48.360;10.958;2022-08-03T09:02:10;96232.38;;;25.62;49.89
56668;BME280;42542;48.360;10.958;2022-08-03T09:05:17;96232.81;;;25.76;47.21
56668;BME280;42542;48.360;10.958;2022-08-03T09:08:19;96235.38;;;25.88;46.41
56668;BME280;42542;48.360;10.958;2022-08-03T09:11:22;96236.34;;;25.98;46.48
56668;BME280;42542;48.360;10.958;2022-08-03T09:14:44;96240.00;;;26.09;46.44
56668;BME280;42542;48.360;10.958;2022-08-03T09:18:06;96240.09;;;26.19;44.76
56668;BME280;42542;48.360;10.958;2022-08-03T09:21:13;96235.06;;;26.33;43.53
56668;BME280;42542;48.360;10.958;2022-08-03T09:24:31;96230.75;;;26.42;44.41
56668;BME280;42542;48.360;10.958;2022-08-03T09:27:45;96228.91;;;26.53;39.20
56668;BME280;42542;48.360;10.958;2022-08-03T09:30:58;96229.78;;;26.58;39.85
56668;BME280;42542;48.360;10.958;2022-08-03T09:34:04;96234.44;;;26.58;40.63
56668;BME280;42542;48.360;10.958;2022-08-03T09:37:13;96229.34;;;26.71;40.93
56668;BME280;42542;48.360;10.958;2022-08-03T09:40:33;96235.41;;;26.78;41.86
56668;BME280;42542;48.360;10.958;2022-08-03T09:43:45;96220.66;;;26.85;40.43
56668;BME280;42542;48.360;10.958;2022-08-03T09:46:49;96232.53;;;26.95;40.71
56668;BME280;42542;48.360;10.958;2022-08-03T09:49:59;96227.69;;;27.07;40.24
56668;BME280;42542;48.360;10.958;2022-08-03T09:53:02;96229.94;;;27.15;40.66
56668;BME280;42542;48.360;10.958;2022-08-03T09:56:04;96229.94;;;27.20;40.25
56668;BME280;42542;48.360;10.958;2022-08-03T09:59:30;96226.13;;;27.27;39.50
56668;BME280;42542;48.360;10.958;2022-08-03T10:02:33;96225.88;;;27.28;39.82
56668;BME280;42542;48.360;10.958;2022-08-03T10:05:35;96230.28;;;27.34;40.80
56668;BME280;42542;48.360;10.958;2022-08-03T10:08:37;96221.28;;;27.44;41.26
56668;BME280;42542;48.360;10.958;2022-08-03T10:11:40;96220.16;;;27.45;40.84
56668;BME280;42542;48.360;10.958;2022-08-03T10:14:43;96228.47;;;27.55;38.85
56668;BME280;42542;48.360;10.958;2022-08-03T10:17:46;96213.66;;;27.61;38.49
56668;BME280;42542;48.360;10.958;2022-08-03T10:20:51;96217.53;;;27.65;39.13
56668;BME280;42542;48.360;10.958;2022-08-03T10:23:53;96218.38;;;27.66;38.47
56668;BME280;42542;48.360;10.958;2022-08-03T10:27:01;96215.34;;;27.67;37.64
56668;BME280;42542;48.360;10.958;2022-08-03T10:30:06;96211.25;;;27.75;37.73
56668;BME280;42542;48.360;10.958;2022-08-03T10:33:14;96201.91;;;27.76;37.43
56668;BME280;42542;48.360;10.958;2022-08-03T10:36:38;96196.72;;;27.79;36.86
56668;BME280;42542;48.360;10.958;2022-08-03T10:39:43;96200.56;;;27.88;37.36
56668;BME280;42542;48.360;10.958;2022-08-03T10:42:58;96201.41;;;27.99;35.80
56668;BME280;42542;48.360;10.958;2022-08-03T10:46:05;96197.00;;;28.03;36.71
56668;BME280;42542;48.360;10.958;2022-08-03T10:49:11;96196.47;;;28.11;36.62
56668;BME280;42542;48.360;10.958;2022-08-03T10:52:13;96194.31;;;28.18;35.98
56668;BME280;42542;48.360;10.958;2022-08-03T10:55:41;96194.34;;;28.23;36.57
56668;BME280;42542;48.360;10.958;2022-08-03T10:59:02;96176.72;;;28.24;36.06
56668;BME280;42542;48.360;10.958;2022-08-03T11:02:04;96181.13;;;28.35;35.43
56668;BME280;42542;48.360;10.958;2022-08-03T11:05:28;96177.28;;;28.42;34.16
56668;BME280;42542;48.360;10.958;2022-08-03T11:08:32;96179.75;;;28.43;35.13
56668;BME280;42542;48.360;10.958;2022-08-03T11:11:36;96175.66;;;28.35;35.48
56668;BME280;42542;48.360;10.958;2022-08-03T11:14:46;96171.25;;;28.34;34.93
56668;BME280;42542;48.360;10.958;2022-08-03T11:18:07;96176.19;;;28.53;35.50
56668;BME280;42542;48.360;10.958;2022-08-03T11:21:11;96176.16;;;28.63;33.42
56668;BME280;42542;48.360;10.958;2022-08-03T11:27:36;96168.47;;;28.85;33.65
56668;BME280;42542;48.360;10.958;2022-08-03T11:30:39;96162.13;;;28.90;34.02
56668;BME280;42542;48.360;10.958;2022-08-03T11:33:41;96163.22;;;28.94;35.39
56668;BME280;42542;48.360;10.958;2022-08-03T11:37:17;96163.19;;;28.99;33.52
56668;BME280;42542;48.360;10.958;2022-08-03T11:43:45;96150.22;;;29.15;33.08
56668;BME280;42542;48.360;10.958;2022-08-03T11:46:47;96146.91;;;29.18;32.77
56668;BME280;42542;48.360;10.958;2022-08-03T11:49:50;96144.69;;;29.25;33.59
56668;BME280;42542;48.360;10.958;2022-08-03T11:52:52;96142.16;;;29.28;33.19
56668;BME280;42542;48.360;10.958;2022-08-03T11:55:57;96134.47;;;29.35;32.99
56668;BME280;42542;48.360;10.958;2022-08-03T11:58:59;96146.53;;;29.39;30.59
56668;BME280;42542;48.360;10.958;2022-08-03T12:02:21;96154.78;;;29.49;31.67
56668;BME280;42542;48.360;10.958;2022-08-03T12:05:52;96146.78;;;29.48;33.35
56668;BME280;42542;48.360;10.958;2022-08-03T12:08:55;96140.44;;;29.47;32.81
56668;BME280;42542;48.360;10.958;2022-08-03T12:11:56;96133.84;;;29.54;33.61
56668;BME280;42542;48.360;10.958;2022-08-03T12:15:02;96142.31;;;29.62;34.06
56668;BME280;42542;48.360;10.958;2022-08-03T12:18:13;96135.91;;;29.72;32.90
56668;BME280;42542;48.360;10.958;2022-08-03T12:21:15;96130.97;;;29.74;33.28
56668;BME280;42542;48.360;10.958;2022-08-03T12:24:18;96136.16;;;29.80;33.04
56668;BME280;42542;48.360;10.958;2022-08-03T12:27:25;96138.31;;;29.83;31.76
56668;BME280;42542;48.360;10.958;2022-08-03T12:30:28;96133.94;;;29.82;31.25
56668;BME280;42542;48.360;10.958;2022-08-03T12:33:29;96129.31;;;29.73;31.84
56668;BME280;42542;48.360;10.958;2022-08-03T12:36:35;96112.00;;;29.67;31.26
56668;BME280;42542;48.360;10.958;2022-08-03T12:39:50;96131.47;;;29.76;30.53
56668;BME280;42542;48.360;10.958;2022-08-03T12:43:13;96124.06;;;29.71;30.39
56668;BME280;42542;48.360;10.958;2022-08-03T12:46:17;96123.19;;;29.81;29.96
56668;BME280;42542;48.360;10.958;2022-08-03T12:49:19;96118.41;;;29.92;29.41
56668;BME280;42542;48.360;10.958;2022-08-03T12:52:21;96118.38;;;30.02;30.17
56668;BME280;42542;48.360;10.958;2022-08-03T12:55:24;96114.09;;;30.19;29.52
56668;BME280;42542;48.360;10.958;2022-08-03T12:58:53;96123.25;;;30.44;29.62
56668;BME280;42542;48.360;10.958;2022-08-03T13:01:56;96107.31;;;30.70;29.09
56668;BME280;42542;48.360;10.958;2022-08-03T13:05:12;96108.97;;;30.94;28.68
56668;BME280;42542;48.360;10.958;2022-08-03T13:08:24;96102.66;;;31.18;27.68
56668;BME280;42542;48.360;10.958;2022-08-03T13:11:27;96109.19;;;31.46;28.84
56668;BME280;42542;48.360;10.958;2022-08-03T13:14:59;96107.75;;;31.72;28.14
56668;BME280;42542;48.360;10.958;2022-08-03T13:18:00;96103.50;;;31.98;27.62
56668;BME280;42542;48.360;10.958;2022-08-03T13:21:02;96102.50;;;32.27;28.09
56668;BME280;42542;48.360;10.958;2022-08-03T13:24:04;96097.63;;;32.51;27.07
56668;BME280;42542;48.360;10.958;2022-08-03T13:27:06;96090.63;;;32.72;27.48
56668;BME280;42542;48.360;10.958;2022-08-03T13:30:28;96094.63;;;32.93;27.31
56668;BME280;42542;48.360;10.958;2022-08-03T13:33:31;96092.38;;;33.09;26.36
56668;BME280;42542;48.360;10.958;2022-08-03T13:36:32;96088.81;;;33.22;25.40
56668;BME280;42542;48.360;10.958;2022-08-03T13:39:54;96099.41;;;33.34;24.92
56668;BME280;42542;48.360;10.958;2022-08-03T13:43:00;96083.34;;;33.45;24.46
56668;BME280;42542;48.360;10.958;2022-08-03T13:46:02;96086.09;;;33.58;24.18
56668;BME280;42542;48.360;10.958;2022-08-03T13:49:04;96079.94;;;33.75;24.75
56668;BME280;42542;48.360;10.958;2022-08-03T13:52:06;96081.78;;;34.02;25.10
56668;BME280;42542;48.360;10.958;2022-08-03T13:55:08;96075.13;;;34.25;24.18
56668;BME280;42542;48.360;10.958;2022-08-03T13:58:10;96071.97;;;34.40;23.45
56668;BME280;42542;48.360;10.958;2022-08-03T14:01:12;96066.13;;;34.42;23.00
56668;BME280;42542;48.360;10.958;2022-08-03T14:04:14;96059.34;;;34.57;23.49
56668;BME280;42542;48.360;10.958;2022-08-03T14:07:22;96063.16;;;34.69;23.40
56668;BME280;42542;48.360;10.958;2022-08-03T14:10:24;96064.41;;;34.94;23.58
56668;BME280;42542;48.360;10.958;2022-08-03T14:13:26;96057.81;;;35.12;23.07
56668;BME280;42542;48.360;10.958;2022-08-03T14:16:27;96057.00;;;35.20;22.35
56668;BME280;42542;48.360;10.958;2022-08-03T14:19:29;96060.31;;;35.31;22.01
56668;BME280;42542;48.360;10.958;2022-08-03T14:22:32;96052.19;;;35.43;21.83
56668;BME280;42542;48.360;10.958;2022-08-03T14:25:34;96054.50;;;35.67;22.30
56668;BME280;42542;48.360;10.958;2022-08-03T14:28:51;96060.09;;;35.84;21.53
56668;BME280;42542;48.360;10.958;2022-08-03T14:31:52;96055.69;;;36.00;20.96
56668;BME280;42542;48.360;10.958;2022-08-03T14:35:12;96057.97;;;35.98;20.96
56668;BME280;42542;48.360;10.958;2022-08-03T14:38:14;96053.06;;;36.13;21.22
56668;BME280;42542;48.360;10.958;2022-08-03T14:41:17;96049.28;;;36.26;21.00
56668;BME280;42542;48.360;10.958;2022-08-03T14:44:20;96051.44;;;36.29;20.49
56668;BME280;42542;48.360;10.958;2022-08-03T14:47:22;96045.19;;;36.41;20.37
56668;BME280;42542;48.360;10.958;2022-08-03T14:50:23;96047.59;;;36.59;21.17
56668;BME280;42542;48.360;10.958;2022-08-03T14:53:42;96038.25;;;36.72;20.40
56668;BME280;42542;48.360;10.958;2022-08-03T14:56:44;96045.69;;;36.89;20.14
56668;BME280;42542;48.360;10.958;2022-08-03T14:59:45;96035.66;;;36.97;19.26
56668;BME280;42542;48.360;10.958;2022-08-03T15:02:57;96035.63;;;37.05;19.15
56668;BME280;42542;48.360;10.958;2022-08-03T15:05:59;96034.16;;;37.08;19.42
56668;BME280;42542;48.360;10.958;2022-08-03T15:09:01;96031.47;;;37.20;20.17
56668;BME280;42542;48.360;10.958;2022-08-03T15:12:22;96024.84;;;37.33;19.05
56668;BME280;42542;48.360;10.958;2022-08-03T15:15:24;96034.91;;;37.46;19.04
56668;BME280;42542;48.360;10.958;2022-08-03T15:18:26;96022.63;;;37.47;18.07
56668;BME280;42542;48.360;10.958;2022-08-03T15:21:27;96028.00;;;37.52;18.16
56668;BME280;42542;48.360;10.958;2022-08-03T15:24:48;96020.47;;;37.53;17.86
56668;BME280;42542;48.360;10.958;2022-08-03T15:27:50;96028.88;;;37.44;18.87
56668;BME280;42542;48.360;10.958;2022-08-03T15:31:04;96022.09;;;37.25;18.73
56668;BME280;42542;48.360;10.958;2022-08-03T15:34:07;96026.59;;;37.17;19.29
56668;BME280;42542;48.360;10.958;2022-08-03T15:37:08;96019.25;;;37.04;19.07
56668;BME280;42542;48.360;10.958;2022-08-03T15:40:23;96019.25;;;37.04;18.97
56668;BME280;42542;48.360;10.958;2022-08-03T15:43:25;96023.69;;;36.96;17.80
56668;BME280;42542;48.360;10.958;2022-08-03T15:46:26;96018.25;;;37.08;18.22
56668;BME280;42542;48.360;10.958;2022-08-03T15:49:30;96020.13;;;37.25;18.50
56668;BME280;42542;48.360;10.958;2022-08-03T15:52:34;96009.97;;;37.29;18.02
56668;BME280;42542;48.360;10.958;2022-08-03T15:55:36;96013.78;;;37.45;19.00
56668;BME280;42542;48.360;10.958;2022-08-03T15:58:38;96012.19;;;37.65;18.97
56668;BME280;42542;48.360;10.958;2022-08-03T16:01:59;96004.09;;;37.72;18.04
56668;BME280;42542;48.360;10.958;2022-08-03T16:05:01;95995.78;;;37.84;18.48
56668;BME280;42542;48.360;10.958;2022-08-03T16:08:03;96002.25;;;37.76;17.45
56668;BME280;42542;48.360;10.958;2022-08-03T16:11:10;95999.19;;;37.69;18.61
56668;BME280;42542;48.360;10.958;2022-08-03T16:14:12;95997.78;;;37.54;18.41
56668;BME280;42542;48.360;10.958;2022-08-03T16:17:34;95995.31;;;37.32;18.70
56668;BME280;42542;48.360;10.958;2022-08-03T16:20:35;95997.22;;;37.11;19.81
56668;BME280;42542;48.360;10.958;2022-08-03T16:23:37;95991.22;;;36.71;19.50